Time;durP1;ratioP1;P1;durP2;ratioP2;P2;SDS_P1;SDS_P2;PMS_P1;PMS_P2;Temp;Humidity;BMP_temperature;BMP_pressure;BME280_temperature;BME280_humidity;BME280_pressure;Samples;Min_cycle;Max_cycle;Signal;HPM_P1;HPM_P2
2021/01/25 00:00:47;;;;;;;12.20;6.17;;;;;;;0.48;71.78;94838.05;1763727;81;21135;-93
2021/01/25 00:03:14;;;;;;;11.38;7.03;;;;;;;0.47;71.90;94838.56;1763753;81;21127;-93
2021/01/25 00:05:41;;;;;;;12.58;6.15;;;;;;;0.53;72.16;94841.95;1763746;81;21135;-93
2021/01/25 00:08:08;;;;;;;11.88;5.28;;;;;;;0.59;72.34;94836.50;1763729;81;21118;-92
2021/01/25 00:10:35;;;;;;;11.38;5.67;;;;;;;0.66;72.46;94836.77;1763756;81;21135;-92
2021/01/25 00:13:02;;;;;;;10.32;6.17;;;;;;;0.69;72.53;94833.63;1763848;81;21479;-92
2021/01/25 00:15:29;;;;;;;11.12;5.92;;;;;;;0.70;72.58;94834.67;1763751;81;21130;-92
2021/01/25 00:17:56;;;;;;;10.45;5.70;;;;;;;0.74;72.75;94834.44;1763716;81;21164;-93
2021/01/25 00:20:23;;;;;;;9.78;5.87;;;;;;;0.79;72.67;94827.91;1764000;81;21146;-91
2021/01/25 00:22:50;;;;;;;13.88;5.67;;;;;;;0.83;72.63;94824.25;1763788;81;21126;-91
2021/01/25 00:25:17;;;;;;;11.00;6.67;;;;;;;0.83;72.49;94832.08;1763929;81;21498;-92
2021/01/25 00:27:44;;;;;;;12.98;6.40;;;;;;;0.76;72.27;94826.34;1763773;81;21531;-92
2021/01/25 00:30:18;;;;;;;14.68;6.47;;;;;;;0.76;72.27;94825.83;1763736;81;21138;-91
2021/01/25 00:32:46;;;;;;;13.65;6.58;;;;;;;0.76;72.19;94827.66;1763758;81;21139;-92
2021/01/25 00:35:14;;;;;;;11.75;6.45;;;;;;;0.69;72.24;94829.72;1763810;81;21482;-92
2021/01/25 00:37:41;;;;;;;10.78;5.97;;;;;;;0.71;72.48;94825.83;1763692;81;21166;-93
2021/01/25 00:40:09;;;;;;;12.55;6.17;;;;;;;0.69;72.63;94830.50;1763767;81;21506;-93
2021/01/25 00:42:36;;;;;;;12.33;6.30;;;;;;;0.58;72.83;94832.33;1763720;81;21441;-93
2021/01/25 00:45:07;;;;;;;13.80;6.40;;;;;;;0.59;73.13;94829.98;1764004;81;21103;-92
2021/01/25 00:47:34;;;;;;;13.45;6.15;;;;;;;0.64;73.31;94830.50;1763835;81;21151;-92
2021/01/25 00:50:02;;;;;;;12.23;6.17;;;;;;;0.70;73.27;94832.58;1763996;81;21131;-93
2021/01/25 00:52:29;;;;;;;13.35;6.33;;;;;;;0.72;73.29;94831.83;1763733;81;21178;-92
2021/01/25 00:54:56;;;;;;;12.55;6.22;;;;;;;0.77;73.38;94833.13;1763721;81;21123;-93
2021/01/25 00:57:23;;;;;;;11.55;5.58;;;;;;;0.76;73.44;94819.83;1763766;81;21150;-93
2021/01/25 00:59:50;;;;;;;10.58;5.62;;;;;;;0.77;73.55;94824.00;1763690;81;21111;-93
2021/01/25 01:02:17;;;;;;;10.78;5.87;;;;;;;0.81;73.72;94825.03;1763691;81;21142;-91
2021/01/25 01:04:44;;;;;;;13.40;5.87;;;;;;;0.81;73.74;94822.42;1763687;81;21126;-91
2021/01/25 01:07:11;;;;;;;14.03;6.15;;;;;;;0.78;73.62;94818.52;1763926;81;21134;-92
2021/01/25 01:09:39;;;;;;;13.22;6.50;;;;;;;0.79;73.54;94816.17;1763774;81;21134;-94
2021/01/25 01:12:07;;;;;;;11.25;6.00;;;;;;;0.82;73.56;94807.81;1763969;81;21170;-92
2021/01/25 01:14:34;;;;;;;10.80;5.62;;;;;;;0.85;73.51;94806.54;1763712;81;21099;-92
2021/01/25 01:17:01;;;;;;;10.20;5.45;;;;;;;0.88;73.57;94806.02;1763749;81;21514;-91
2021/01/25 01:19:28;;;;;;;9.80;5.35;;;;;;;0.88;73.50;94808.62;1763689;81;21225;-91
2021/01/25 01:21:55;;;;;;;9.00;5.30;;;;;;;0.87;73.39;94809.66;1763714;81;21155;-92
2021/01/25 01:24:23;;;;;;;9.83;4.60;;;;;;;0.86;73.46;94809.41;1763789;81;21130;-93
2021/01/25 01:26:49;;;;;;;13.48;6.85;;;;;;;0.83;73.49;94813.81;1763698;81;21192;-92
2021/01/25 01:29:16;;;;;;;12.43;7.08;;;;;;;0.61;73.48;94804.95;1764042;81;21188;-91
2021/01/25 01:31:44;;;;;;;12.37;7.22;;;;;;;0.53;73.66;94799.72;1771398;80;21154;-93
2021/01/25 01:34:12;;;;;;;10.75;6.40;;;;;;;0.51;73.79;94800.50;1740933;82;21146;-93
2021/01/25 01:36:39;;;;;;;15.93;7.55;;;;;;;0.56;73.83;94790.09;1740831;82;21174;-92
2021/01/25 01:39:06;;;;;;;15.60;7.15;;;;;;;0.60;73.89;94789.05;1740996;82;21158;-94
2021/01/25 01:41:40;;;;;;;11.10;6.10;;;;;;;0.62;73.91;94782.27;1740869;82;21166;-93
2021/01/25 01:44:12;;;;;;;11.83;6.00;;;;;;;0.67;73.90;94790.08;1740921;82;21161;-92
2021/01/25 01:46:43;;;;;;;10.10;5.33;;;;;;;0.72;74.09;94794.02;1772911;81;21130;-91
2021/01/25 01:49:12;;;;;;;10.30;5.53;;;;;;;0.75;73.83;94794.27;1756148;82;21122;-93
2021/01/25 01:51:39;;;;;;;9.13;5.30;;;;;;;0.75;73.87;94794.79;1772970;81;21513;-93
2021/01/25 01:54:07;;;;;;;12.40;7.15;;;;;;;0.65;73.81;94796.08;1772616;81;21482;-93
2021/01/25 01:56:36;;;;;;;15.38;7.42;;;;;;;0.43;74.01;94802.33;1741090;82;21161;-93
2021/01/25 01:59:04;;;;;;;10.88;6.25;;;;;;;0.39;74.33;94801.27;1740979;82;21157;-93
2021/01/25 02:01:31;;;;;;;12.95;6.92;;;;;;;0.43;74.50;94807.55;1772659;81;21506;-93
2021/01/25 02:04:00;;;;;;;15.95;7.50;;;;;;;0.50;74.55;94802.84;1740798;82;21146;-93
2021/01/25 02:06:30;;;;;;;16.17;7.95;;;;;;;0.54;74.57;94801.28;1772579;81;21179;-91
2021/01/25 02:08:59;;;;;;;13.55;7.40;;;;;;;0.58;74.58;94810.17;1741101;82;21170;-91
2021/01/25 02:11:28;;;;;;;13.88;7.12;;;;;;;0.63;74.49;94811.98;1740885;82;21158;-92
2021/01/25 02:13:56;;;;;;;15.13;7.95;;;;;;;0.53;74.51;94812.75;1741033;82;21497;-92
2021/01/25 02:16:23;;;;;;;14.50;7.25;;;;;;;0.51;74.81;94812.75;1740771;82;21121;-92
2021/01/25 02:18:50;;;;;;;15.30;8.03;;;;;;;0.54;75.07;94815.62;1772631;81;21146;-93
2021/01/25 02:21:19;;;;;;;14.50;7.15;;;;;;;0.61;75.26;94815.91;1717835;82;21174;-91
2021/01/25 02:24:22;;;;;;;13.70;7.83;;;;;;;0.67;75.33;94817.46;1772871;81;21150;-93
2021/01/25 02:27:10;;;;;;;18.23;7.85;;;;;;;0.69;75.37;94815.38;1756083;82;21288;-91
2021/01/25 02:29:37;;;;;;;14.23;8.20;;;;;;;0.66;75.16;94818.50;1759553;79;21168;-92
2021/01/25 02:32:05;;;;;;;13.78;7.75;;;;;;;0.57;75.18;94824.25;1763074;80;21130;-93
2021/01/25 02:34:33;;;;;;;14.75;7.95;;;;;;;0.47;75.46;94826.83;1748363;82;21107;-91
2021/01/25 02:37:02;;;;;;;14.25;7.85;;;;;;;0.40;75.67;94823.67;1748473;82;21110;-93
2021/01/25 02:39:31;;;;;;;15.30;8.60;;;;;;;0.36;75.88;94822.63;1721675;82;21188;-93
2021/01/25 02:42:01;;;;;;;16.42;8.48;;;;;;;0.29;76.06;94824.20;1748388;82;21158;-92
2021/01/25 02:44:30;;;;;;;15.70;8.23;;;;;;;0.34;76.31;94819.50;1748836;82;21126;-92
2021/01/25 02:47:00;;;;;;;14.15;8.05;;;;;;;0.35;76.49;94824.98;1748492;82;21142;-90
2021/01/25 02:49:28;;;;;;;11.95;6.55;;;;;;;0.23;76.54;94821.82;1748615;82;21167;-91
2021/01/25 02:51:55;;;;;;;13.38;8.48;;;;;;;0.16;76.72;94823.38;1748392;82;21150;-93
2021/01/25 02:54:22;;;;;;;14.68;8.40;;;;;;;0.18;76.92;94827.80;1748466;82;21138;-93
2021/01/25 02:56:50;;;;;;;17.27;8.93;;;;;;;0.22;77.18;94825.47;1748473;82;21142;-91
2021/01/25 02:59:18;;;;;;;17.12;9.40;;;;;;;0.18;77.26;94819.21;1741927;82;21155;-90
2021/01/25 03:01:46;;;;;;;16.90;9.18;;;;;;;0.16;77.37;94818.16;1718682;83;21123;-91
2021/01/25 03:04:15;;;;;;;15.72;9.00;;;;;;;0.21;77.47;94825.20;1707138;83;21516;-90
2021/01/25 03:06:43;;;;;;;16.27;9.25;;;;;;;0.23;77.61;94831.72;1718759;83;21486;-92
2021/01/25 03:09:10;;;;;;;15.03;8.55;;;;;;;0.25;77.70;94836.16;1731664;83;21161;-93
2021/01/25 03:11:40;;;;;;;15.98;9.40;;;;;;;0.28;77.84;94831.75;1718692;83;21131;-91
2021/01/25 03:14:11;;;;;;;18.37;9.25;;;;;;;0.28;77.89;94838.77;1719106;83;21178;-91
2021/01/25 03:16:38;;;;;;;13.85;8.35;;;;;;;0.26;77.99;94835.63;1718779;83;21134;-90
2021/01/25 03:19:05;;;;;;;16.85;9.93;;;;;;;0.21;78.07;94827.81;1718932;82;21170;-93
2021/01/25 03:21:33;;;;;;;15.30;9.60;;;;;;;0.20;78.20;94836.15;1718847;83;21166;-92
2021/01/25 03:24:03;;;;;;;17.73;10.20;;;;;;;0.20;78.36;94836.67;1718677;83;21127;-93
2021/01/25 03:26:30;;;;;;;17.87;9.30;;;;;;;0.18;78.52;94833.02;1718824;83;21506;-93
2021/01/25 03:28:57;;;;;;;14.45;9.33;;;;;;;0.20;78.59;94832.23;1718656;82;21185;-92
2021/01/25 03:31:24;;;;;;;17.60;10.03;;;;;;;0.24;78.66;94831.20;1735200;82;21287;-92
2021/01/25 03:33:51;;;;;;;16.25;9.68;;;;;;;0.29;78.82;94833.84;1737674;83;21505;-92
2021/01/25 03:36:18;;;;;;;14.75;9.28;;;;;;;0.32;78.78;94835.14;1737709;83;21492;-92
2021/01/25 03:38:45;;;;;;;16.32;9.28;;;;;;;0.35;78.82;94832.80;1737798;83;21153;-93
2021/01/25 03:41:12;;;;;;;15.58;8.73;;;;;;;0.30;78.79;94840.61;1761260;81;21537;-93
2021/01/25 03:43:39;;;;;;;16.70;8.53;;;;;;;0.21;78.83;94833.80;1761478;81;21117;-92
2021/01/25 03:46:06;;;;;;;18.07;9.63;;;;;;;0.15;78.96;94830.15;1761199;81;21524;-92
2021/01/25 03:48:33;;;;;;;14.40;8.75;;;;;;;0.07;79.06;94831.94;1761153;81;21152;-91
2021/01/25 03:51:00;;;;;;;17.02;9.05;;;;;;;-0.03;79.23;94838.66;1761178;81;21145;-91
2021/01/25 03:53:27;;;;;;;15.80;9.38;;;;;;;-0.12;79.55;94835.52;1761275;81;21508;-91
2021/01/25 03:55:54;;;;;;;16.37;9.18;;;;;;;-0.23;79.66;94824.27;1761246;81;21500;-92
2021/01/25 03:58:20;;;;;;;15.75;10.48;;;;;;;-0.29;79.93;94826.56;1761258;81;21145;-91
2021/01/25 04:00:47;;;;;;;16.77;9.85;;;;;;;-0.35;80.07;94821.09;1761116;81;21584;-92
2021/01/25 04:03:14;;;;;;;14.73;8.98;;;;;;;-0.28;80.34;94820.84;1761403;81;21516;-91
2021/01/25 04:05:41;;;;;;;16.17;10.03;;;;;;;-0.31;80.47;94818.23;1761182;81;21137;-93
2021/01/25 04:08:09;;;;;;;16.77;9.30;;;;;;;-0.35;80.58;94819.78;1761252;81;21508;-91
2021/01/25 04:10:36;;;;;;;15.55;9.28;;;;;;;-0.45;80.94;94824.41;1761157;81;21113;-91
2021/01/25 04:13:03;;;;;;;18.27;9.83;;;;;;;-0.52;81.15;94817.87;1761242;81;21524;-92
2021/01/25 04:15:31;;;;;;;18.17;10.38;;;;;;;-0.51;81.21;94824.65;1761176;81;21153;-91
2021/01/25 04:18:00;;;;;;;17.42;10.80;;;;;;;-0.46;81.39;94818.16;1761141;81;21169;-91
2021/01/25 04:20:27;;;;;;;15.08;9.45;;;;;;;-0.50;81.42;94816.59;1761251;81;21173;-92
2021/01/25 04:22:54;;;;;;;15.13;9.40;;;;;;;-0.46;81.24;94820.77;1761172;81;21153;-91
2021/01/25 04:25:21;;;;;;;14.30;8.88;;;;;;;-0.51;81.57;94812.94;1761282;81;21497;-92
2021/01/25 04:27:48;;;;;;;15.20;9.10;;;;;;;-0.61;81.84;94815.73;1761225;81;21178;-91
2021/01/25 04:30:16;;;;;;;16.10;8.45;;;;;;;-0.70;81.68;94810.76;1761273;81;21144;-92
2021/01/25 04:32:43;;;;;;;15.35;8.35;;;;;;;-0.64;81.38;94810.26;1771227;81;21136;-93
2021/01/25 04:35:15;;;;;;;15.25;8.05;;;;;;;-0.59;81.20;94805.08;1772231;81;21147;-94
2021/01/25 04:37:43;;;;;;;10.10;6.17;;;;;;;-0.55;81.00;94809.28;1772442;81;21133;-93
2021/01/25 04:40:12;;;;;;;16.60;8.23;;;;;;;-0.51;80.75;94811.63;1772387;81;21164;-93
2021/01/25 04:42:41;;;;;;;15.60;7.65;;;;;;;-0.55;80.51;94805.38;1772432;81;21634;-93
2021/01/25 04:45:11;;;;;;;12.82;7.28;;;;;;;-0.62;80.27;94801.68;1772421;81;21168;-91
2021/01/25 04:47:48;;;;;;;14.13;7.70;;;;;;;-0.77;80.36;94775.58;1772611;81;21163;-91
2021/01/25 04:50:18;;;;;;;14.95;7.03;;;;;;;-0.66;80.56;94793.60;1772410;81;21149;-93
2021/01/25 04:52:47;;;;;;;10.82;7.08;;;;;;;-0.63;80.46;94797.52;1772798;81;21117;-93
2021/01/25 04:55:19;;;;;;;15.20;7.30;;;;;;;-0.60;80.40;94795.70;1772405;81;21147;-92
2021/01/25 04:57:48;;;;;;;13.78;7.35;;;;;;;-0.60;80.34;94793.10;1772468;81;21528;-92
2021/01/25 05:00:19;;;;;;;12.58;7.33;;;;;;;-0.53;80.40;94796.80;1772385;81;21171;-93
2021/01/25 05:02:46;;;;;;;12.60;6.53;;;;;;;-0.52;80.26;94791.33;1772521;81;21121;-91
2021/01/25 05:05:13;;;;;;;14.40;7.15;;;;;;;-0.54;80.02;94805.64;1772409;81;21500;-92
2021/01/25 05:07:40;;;;;;;13.68;7.17;;;;;;;-0.57;80.10;94797.80;1772373;81;21152;-91
2021/01/25 05:10:11;;;;;;;13.68;6.90;;;;;;;-0.55;80.07;94802.25;1772572;81;21140;-92
2021/01/25 05:12:52;;;;;;;13.32;7.50;;;;;;;-0.55;79.95;94800.95;1772540;81;21097;-91
2021/01/25 05:15:30;;;;;;;13.43;7.17;;;;;;;-0.56;79.89;94803.78;1772377;81;21145;-92
2021/01/25 05:18:03;;;;;;;13.93;6.47;;;;;;;-0.55;80.04;94806.16;1772426;81;21176;-91
2021/01/25 05:20:33;;;;;;;12.73;7.47;;;;;;;-0.54;80.11;94802.52;1772460;81;21148;-93
2021/01/25 05:23:03;;;;;;;12.50;7.17;;;;;;;-0.57;79.96;94795.19;1772645;81;21147;-93
2021/01/25 05:25:33;;;;;;;11.50;7.22;;;;;;;-0.58;79.86;94801.95;1746655;81;21148;-92
2021/01/25 05:28:01;;;;;;;13.55;7.75;;;;;;;-0.65;79.80;94799.07;1772460;81;21182;-91
2021/01/25 05:30:29;;;;;;;12.55;6.15;;;;;;;-0.65;79.79;94799.07;1772638;81;21144;-92
2021/01/25 05:32:58;;;;;;;14.65;9.00;;;;;;;-0.71;79.61;94792.77;1762419;81;21168;-91
2021/01/25 05:35:33;;;;;;;14.98;7.33;;;;;;;-0.84;79.58;94797.92;1761277;81;21140;-92
2021/01/25 05:38:07;;;;;;;16.40;8.80;;;;;;;-0.86;79.70;94797.89;1761264;81;21171;-93
2021/01/25 05:40:38;;;;;;;15.55;8.55;;;;;;;-0.95;79.83;94801.48;1761267;81;21149;-93
2021/01/25 05:43:16;;;;;;;14.23;7.85;;;;;;;-0.99;80.03;94804.30;1761366;81;21489;-92
2021/01/25 05:45:44;;;;;;;12.35;7.08;;;;;;;-1.04;80.16;94802.45;1761342;81;21156;-93
2021/01/25 05:48:15;;;;;;;14.25;8.50;;;;;;;-1.08;80.28;94799.31;1733781;81;21487;-93
2021/01/25 05:50:44;;;;;;;12.88;6.50;;;;;;;-1.15;80.29;94794.83;1761461;81;21169;-92
2021/01/25 05:53:13;;;;;;;15.68;7.78;;;;;;;-1.18;80.34;94791.43;1761240;81;21113;-92
2021/01/25 05:55:42;;;;;;;12.73;6.08;;;;;;;-1.22;80.46;94800.25;1761396;81;21140;-91
2021/01/25 05:58:10;;;;;;;15.20;9.03;;;;;;;-1.23;80.32;94811.17;1761296;81;21501;-92
2021/01/25 06:00:38;;;;;;;17.55;9.58;;;;;;;-1.26;80.43;94806.47;1761296;81;21157;-92
2021/01/25 06:03:06;;;;;;;14.50;8.43;;;;;;;-1.27;80.67;94805.39;1761247;81;21169;-93
2021/01/25 06:05:40;;;;;;;14.60;6.95;;;;;;;-1.30;80.83;94815.77;1761434;81;21160;-92
2021/01/25 06:08:16;;;;;;;19.95;10.82;;;;;;;-1.37;80.83;94819.11;1761348;81;21160;-93
2021/01/25 06:11:04;;;;;;;14.55;9.50;;;;;;;-1.39;80.94;94821.69;1761014;81;21109;-92
2021/01/25 06:13:54;;;;;;;9.05;5.08;;;;;;;-1.41;81.28;94828.41;1761493;81;21137;-94
2021/01/25 06:16:28;;;;;;;12.07;7.05;;;;;;;-1.43;81.26;94823.98;1708622;81;21153;-93
2021/01/25 06:18:59;;;;;;;18.00;8.95;;;;;;;-1.46;81.42;94831.48;1761446;81;21504;-93
2021/01/25 06:21:32;;;;;;;17.77;9.78;;;;;;;-1.47;81.30;94824.20;1761508;81;21168;-92
2021/01/25 06:24:03;;;;;;;18.80;7.87;;;;;;;-1.45;81.47;94832.53;1761249;81;21141;-93
2021/01/25 06:26:34;;;;;;;19.60;10.08;;;;;;;-1.44;81.57;94835.41;1761657;81;21102;-90
2021/01/25 06:29:07;;;;;;;17.35;10.48;;;;;;;-1.44;81.57;94832.80;1761344;81;21504;-90
2021/01/25 06:31:38;;;;;;;18.60;9.35;;;;;;;-1.46;81.62;94827.07;1761212;81;21169;-92
2021/01/25 06:34:11;;;;;;;18.77;10.93;;;;;;;-1.45;81.59;94831.23;1761050;81;21145;-94
2021/01/25 06:36:42;;;;;;;14.33;9.45;;;;;;;-1.46;81.72;94837.47;1761249;81;21492;-93
2021/01/25 06:39:11;;;;;;;18.73;10.72;;;;;;;-1.42;81.64;94834.64;1761220;81;21137;-94
2021/01/25 06:41:42;;;;;;;20.32;10.60;;;;;;;-1.42;81.75;94832.04;1761574;81;21184;-91
2021/01/25 06:44:12;;;;;;;16.85;10.10;;;;;;;-1.38;81.52;94830.53;1761444;81;21125;-94
2021/01/25 06:46:40;;;;;;;17.73;10.48;;;;;;;-1.33;81.47;94826.67;1761422;81;21144;-93
2021/01/25 06:49:10;;;;;;;17.95;10.18;;;;;;;-1.28;81.47;94831.13;1761394;81;21129;-92
2021/01/25 06:51:44;;;;;;;17.25;10.20;;;;;;;-1.26;81.36;94838.97;1761368;81;21144;-92
2021/01/25 06:54:13;;;;;;;16.05;9.65;;;;;;;-1.25;81.30;94831.43;1761705;81;21500;-92
2021/01/25 06:56:53;;;;;;;16.30;9.35;;;;;;;-1.23;81.25;94844.18;1761306;81;21489;-94
2021/01/25 06:59:23;;;;;;;16.80;10.43;;;;;;;-1.21;81.22;94836.40;1761355;81;21179;-93
2021/01/25 07:01:53;;;;;;;17.85;10.58;;;;;;;-1.17;81.24;94843.70;1761271;81;21157;-93
2021/01/25 07:04:24;;;;;;;16.73;9.98;;;;;;;-1.24;81.20;94844.70;1761537;81;21148;-92
2021/01/25 07:06:54;;;;;;;17.27;10.48;;;;;;;-1.20;81.15;94847.58;1761296;81;21505;-92
2021/01/25 07:09:30;;;;;;;15.18;9.28;;;;;;;-1.12;81.22;94851.55;1761141;81;21535;-91
2021/01/25 07:12:00;;;;;;;17.65;11.08;;;;;;;-1.05;81.24;94848.22;1761551;81;21464;-93
2021/01/25 07:14:33;;;;;;;18.60;9.95;;;;;;;-0.98;81.23;94850.89;1761407;81;21140;-91
2021/01/25 07:17:01;;;;;;;19.35;10.40;;;;;;;-0.95;81.19;94856.11;1761192;81;21141;-91
2021/01/25 07:19:28;;;;;;;19.07;10.95;;;;;;;-1.00;81.04;94856.05;1761579;81;21291;-92
2021/01/25 07:21:56;;;;;;;21.30;10.53;;;;;;;-1.03;81.01;94865.66;1760848;81;21137;-94
2021/01/25 07:24:26;;;;;;;20.82;10.53;;;;;;;-1.03;81.04;94861.75;1761126;81;21139;-94
2021/01/25 07:26:56;;;;;;;17.73;9.45;;;;;;;-1.01;81.10;94864.89;1761337;81;21144;-92
2021/01/25 07:29:26;;;;;;;12.35;7.42;;;;;;;-1.07;81.09;94861.47;1761664;81;21507;-92
2021/01/25 07:31:55;;;;;;;17.50;10.98;;;;;;;-1.12;81.32;94854.94;1764190;81;21511;-93
2021/01/25 07:34:24;;;;;;;21.10;10.55;;;;;;;-1.26;81.46;94859.77;1772301;81;21266;-93
2021/01/25 07:36:52;;;;;;;19.15;11.70;;;;;;;-1.26;81.87;94852.48;1772685;81;21468;-91
2021/01/25 07:39:20;;;;;;;16.50;11.12;;;;;;;-1.26;81.87;94852.48;1772396;81;21294;-92
2021/01/25 07:41:49;;;;;;;20.35;10.90;;;;;;;-1.28;81.96;94857.90;1772296;81;21168;-91
2021/01/25 07:44:17;;;;;;;24.85;14.00;;;;;;;-1.25;81.90;94860.55;1772251;81;21271;-94
2021/01/25 07:46:47;;;;;;;20.02;12.43;;;;;;;-1.23;82.10;94852.77;1772339;81;21140;-93
2021/01/25 07:49:26;;;;;;;15.75;9.90;;;;;;;-1.26;82.15;94858.46;1772223;81;21298;-92
2021/01/25 07:51:54;;;;;;;19.67;11.18;;;;;;;-1.18;82.24;94857.73;1772260;81;21274;-92
2021/01/25 07:54:21;;;;;;;22.22;12.88;;;;;;;-1.24;82.25;94859.00;1772231;81;21144;-92
2021/01/25 07:56:48;;;;;;;17.23;8.90;;;;;;;-1.20;82.33;94862.66;1772241;81;21662;-91
2021/01/25 07:59:17;;;;;;;19.50;10.93;;;;;;;-1.03;81.87;94855.25;1772309;81;21512;-91
2021/01/25 08:02:01;;;;;;;20.52;11.93;;;;;;;-1.03;81.87;94855.25;1772180;81;21164;-93
2021/01/25 08:04:34;;;;;;;19.77;11.93;;;;;;;-1.01;82.05;94843.56;1772057;81;21678;-92
2021/01/25 08:07:02;;;;;;;19.27;12.00;;;;;;;-1.01;82.05;94843.56;1772320;81;21632;-92
2021/01/25 08:09:31;;;;;;;20.90;12.43;;;;;;;-0.91;81.98;94851.45;1772209;81;21149;-92
2021/01/25 08:12:01;;;;;;;13.85;10.03;;;;;;;-0.88;82.05;94858.48;1772410;81;21274;-91
2021/01/25 08:14:42;;;;;;;18.40;11.08;;;;;;;-0.86;82.12;94857.72;1772650;81;21167;-92
2021/01/25 08:17:23;;;;;;;20.20;11.30;;;;;;;-0.95;81.87;94860.79;1771995;80;21119;-93
2021/01/25 08:20:03;;;;;;;19.17;10.30;;;;;;;-0.91;81.94;94861.07;1772736;81;21101;-92
2021/01/25 08:22:48;;;;;;;18.93;11.10;;;;;;;-0.93;82.08;94861.32;1772839;81;21132;-93
2021/01/25 08:25:20;;;;;;;19.07;11.93;;;;;;;-1.03;82.07;94847.45;1772488;81;21105;-91
2021/01/25 08:28:11;;;;;;;17.90;9.98;;;;;;;-1.03;82.07;94847.45;1772279;81;21176;-91
2021/01/25 08:30:40;;;;;;;;;;;;;;;-0.95;82.36;94854.29;1773990;81;21552;-93
2021/01/25 08:33:11;;;;;;;20.45;11.83;;;;;;;-1.11;82.32;94853.12;1740772;81;20158;-91
2021/01/25 08:35:53;;;;;;;23.75;14.28;;;;;;;-1.15;82.46;94861.91;1734719;82;21478;-92
2021/01/25 08:38:31;;;;;;;19.73;12.37;;;;;;;-1.16;82.52;94843.96;1765846;80;21113;-93
2021/01/25 08:41:03;;;;;;;22.58;12.70;;;;;;;-1.16;82.52;94843.96;1764505;81;21152;-92
2021/01/25 08:43:34;;;;;;;22.55;13.13;;;;;;;-1.07;82.87;94863.29;1757662;81;21129;-91
2021/01/25 08:46:14;;;;;;;18.95;12.88;;;;;;;-1.10;82.90;94859.38;1764629;81;21120;-92
2021/01/25 08:48:42;;;;;;;;;;;;;;;-1.14;83.00;94854.89;1767096;81;21189;-94
2021/01/25 08:51:31;;;;;;;22.85;12.23;;;;;;;-0.93;82.97;94864.44;1764817;81;20125;-91
2021/01/25 08:54:16;;;;;;;19.40;14.25;;;;;;;-0.86;82.88;94863.70;1764525;81;21148;-91
2021/01/25 08:56:44;;;;;;;20.37;12.40;;;;;;;-0.87;82.89;94861.34;1744095;81;21575;-93
2021/01/25 08:59:15;;;;;;;24.75;13.65;;;;;;;-0.82;82.90;94864.01;1741477;81;21148;-92
2021/01/25 09:01:45;;;;;;;24.52;13.90;;;;;;;-0.81;82.76;94859.07;1762613;81;21148;-94
2021/01/25 09:04:13;;;;;;;17.75;11.93;;;;;;;-0.80;82.57;94865.32;1762864;81;21164;-93
2021/01/25 09:06:53;;;;;;;20.00;11.88;;;;;;;-0.79;82.52;94867.41;1762684;81;21516;-92
2021/01/25 09:09:21;;;;;;;;;;;;;;;-0.86;82.86;94872.02;1765195;81;21528;-92
2021/01/25 09:11:49;;;;;;;21.97;14.03;;;;;;;-0.91;82.83;94870.95;1762878;81;20157;-92
2021/01/25 09:14:17;;;;;;;19.25;10.80;;;;;;;-0.96;82.97;94871.45;1762672;81;21548;-92
2021/01/25 09:16:45;;;;;;;20.72;13.18;;;;;;;-0.96;82.97;94871.45;1762662;81;21504;-93
2021/01/25 09:19:15;;;;;;;23.15;13.90;;;;;;;-1.00;83.29;94876.85;1762637;81;21156;-92
2021/01/25 09:21:44;;;;;;;;;;;;;;;-0.98;83.19;94874.81;1765234;81;21152;-93
2021/01/25 09:24:13;;;;;;;20.50;11.83;;;;;;;-0.90;83.21;94876.42;1762650;81;20110;-94
2021/01/25 09:26:40;;;;;;;16.77;11.65;;;;;;;-0.91;83.22;94864.97;1762674;81;21520;-92
2021/01/25 09:29:07;;;;;;;19.80;12.28;;;;;;;-0.76;83.04;94878.09;1762769;81;21178;-93
2021/01/25 09:31:35;;;;;;;19.95;12.25;;;;;;;-0.76;83.04;94878.09;1762895;80;21156;-94
2021/01/25 09:34:02;;;;;;;21.70;13.58;;;;;;;-0.62;83.35;94883.66;1763777;81;21179;-92
2021/01/25 09:36:29;;;;;;;15.50;9.20;;;;;;;-0.54;83.11;94883.20;1764008;81;21496;-93
2021/01/25 09:38:57;;;;;;;18.70;11.93;;;;;;;-0.44;82.98;94874.65;1764103;81;21194;-93
2021/01/25 09:41:24;;;;;;;22.90;12.85;;;;;;;-0.47;82.77;94881.66;1764227;81;21160;-92
2021/01/25 09:43:51;;;;;;;20.25;11.95;;;;;;;-0.47;82.77;94881.66;1763996;81;21153;-95
2021/01/25 09:46:18;;;;;;;17.02;11.05;;;;;;;-0.45;82.66;94883.50;1764032;81;21137;-92
2021/01/25 09:48:45;;;;;;;19.92;11.43;;;;;;;-0.41;82.62;94891.88;1763907;81;21129;-94
2021/01/25 09:51:12;;;;;;;20.37;11.88;;;;;;;-0.31;82.49;94888.53;1764118;81;21140;-93
2021/01/25 09:53:39;;;;;;;21.25;12.85;;;;;;;-0.28;82.35;94881.53;1764043;81;21504;-93
2021/01/25 09:56:07;;;;;;;19.70;12.70;;;;;;;-0.38;82.12;94872.36;1764205;81;21121;-95
2021/01/25 09:58:36;;;;;;;17.90;9.30;;;;;;;-0.47;82.12;94875.94;1764031;81;21177;-93
2021/01/25 10:01:05;;;;;;;24.70;14.23;;;;;;;-0.53;82.60;94882.68;1764106;81;21169;-94
2021/01/25 10:03:34;;;;;;;22.10;14.18;;;;;;;-0.63;82.73;94886.77;1764194;81;21117;-94
2021/01/25 10:06:02;;;;;;;24.43;15.68;;;;;;;-0.66;82.82;94886.50;1738370;81;21154;-95
2021/01/25 10:08:29;;;;;;;20.02;13.38;;;;;;;-0.71;83.04;94886.44;1764011;81;21170;-96
2021/01/25 10:10:56;;;;;;;25.17;13.90;;;;;;;-0.57;83.17;94899.81;1764130;81;21141;-94
2021/01/25 10:13:24;;;;;;;20.15;12.25;;;;;;;-0.72;82.88;94877.85;1764022;81;21133;-94
2021/01/25 10:15:51;;;;;;;20.10;12.93;;;;;;;-0.58;82.96;94891.22;1763997;81;21109;-96
2021/01/25 10:18:18;;;;;;;20.10;13.15;;;;;;;-0.56;82.94;94894.38;1764124;81;21180;-93
2021/01/25 10:20:46;;;;;;;20.60;12.40;;;;;;;-0.65;83.16;94899.25;1763978;81;21125;-95
2021/01/25 10:23:13;;;;;;;17.55;10.75;;;;;;;-0.62;83.13;94897.45;1763882;81;21164;-93
2021/01/25 10:25:40;;;;;;;20.05;12.40;;;;;;;-0.61;83.24;94902.13;1764155;81;21149;-94
2021/01/25 10:28:08;;;;;;;23.98;14.30;;;;;;;-0.71;83.36;94896.84;1764161;81;21164;-93
2021/01/25 10:30:35;;;;;;;19.85;12.63;;;;;;;-0.68;83.26;94896.38;1763912;81;21157;-93
2021/01/25 10:33:02;;;;;;;23.50;13.00;;;;;;;-0.72;83.51;94891.38;1764025;81;21192;-95
2021/01/25 10:35:30;;;;;;;19.10;10.50;;;;;;;-0.72;83.51;94891.38;1763994;81;21164;-94
2021/01/25 10:37:59;;;;;;;14.47;9.63;;;;;;;-0.66;83.62;94903.41;1763903;81;21164;-94
2021/01/25 10:40:26;;;;;;;21.77;11.60;;;;;;;-0.73;83.76;94895.80;1763938;81;21152;-96
2021/01/25 10:42:53;;;;;;;24.32;13.28;;;;;;;-0.76;83.95;94898.91;1763902;81;21152;-93
2021/01/25 10:45:21;;;;;;;20.02;13.70;;;;;;;-0.79;83.99;94893.42;1764360;81;21491;-94
2021/01/25 10:47:48;;;;;;;17.57;10.25;;;;;;;-0.79;83.99;94893.42;1763892;81;21209;-94
2021/01/25 10:50:17;;;;;;;14.87;9.38;;;;;;;-0.78;84.43;94882.77;1763947;81;21507;-95
2021/01/25 10:52:45;;;;;;;19.75;12.07;;;;;;;-0.93;84.59;94872.24;1764079;81;21153;-95
2021/01/25 10:55:14;;;;;;;23.32;13.85;;;;;;;-0.85;84.67;94886.08;1763906;81;21185;-94
2021/01/25 10:57:41;;;;;;;20.30;12.95;;;;;;;-0.74;84.47;94885.13;1764066;81;21163;-95
2021/01/25 11:00:20;;;;;;;11.30;7.37;;;;;;;-0.73;84.47;94882.79;1764002;81;21113;-94
2021/01/25 11:02:48;;;;;;;15.63;9.10;;;;;;;-0.73;84.47;94882.79;1764128;81;21206;-93
2021/01/25 11:05:20;;;;;;;17.05;8.80;;;;;;;-0.77;84.50;94873.92;1764295;81;21481;-94
2021/01/25 11:07:48;;;;;;;18.75;9.98;;;;;;;-0.77;84.50;94873.92;1764038;81;21153;-95
2021/01/25 11:10:23;;;;;;;13.68;8.65;;;;;;;-0.67;84.52;94880.51;1763995;81;21161;-95
2021/01/25 11:12:50;;;;;;;12.58;8.15;;;;;;;-0.71;84.61;94882.02;1763899;81;21094;-93
2021/01/25 11:15:18;;;;;;;11.12;7.92;;;;;;;-0.66;84.65;94887.28;1764200;81;21584;-95
2021/01/25 11:17:45;;;;;;;18.70;9.10;;;;;;;-0.62;84.58;94889.64;1764242;81;21118;-95
2021/01/25 11:20:15;;;;;;;20.15;13.28;;;;;;;-0.60;84.48;94889.39;1764052;81;21152;-96
2021/01/25 11:22:42;;;;;;;20.08;13.08;;;;;;;-0.49;84.48;94893.63;1764456;81;21145;-95
2021/01/25 11:25:11;;;;;;;18.05;10.70;;;;;;;-0.43;84.32;94890.53;1764244;81;21132;-96
2021/01/25 11:27:38;;;;;;;14.58;8.95;;;;;;;-0.25;84.19;94890.14;1764414;81;21172;-95
2021/01/25 11:30:09;;;;;;;18.50;12.03;;;;;;;-0.17;83.88;94876.63;1764775;81;21139;-94
2021/01/25 11:32:36;;;;;;;15.85;10.45;;;;;;;-0.25;83.64;94894.05;1764714;81;21480;-94
2021/01/25 11:35:06;;;;;;;12.60;8.85;;;;;;;-0.28;83.40;94891.95;1765134;81;21101;-96
2021/01/25 11:37:34;;;;;;;22.58;14.25;;;;;;;-0.36;83.35;94889.29;1765352;81;21177;-96